Terminal Aerodrome Forecast
Issued by NWS Jacksonville, FL

Home | Current Version | Previous Version | Text Only | Print | Product List | Glossary On
Versions: 1 2 3 4 5 6 7 8 9 10 11 12 13 14 15 16
000
FTUS42 KJAX 301300 AAA
TAFSSI
TAF AMD
KSSI 301353Z 3014/3112 VRB03KT P6SM BKN025
     FM301500 10006KT P6SM SCT030
     FM301700 12010KT P6SM SCT035 SCT250
     FM310300 16006KT P6SM FEW030 SCT120 BKN250=

USA.gov is the U.S. government's official web portal to all federal, state and local government web resources and services.